sensor_id;sensor_type;location;lat;lon;timestamp;P1;durP1;ratioP1;P2;durP2;ratioP2
8490;SDS011;4282;49.986;7.938;2022-12-26T00:02:15;7.20;;;5.53;;
8490;SDS011;4282;49.986;7.938;2022-12-26T00:04:43;7.77;;;5.77;;
8490;SDS011;4282;49.986;7.938;2022-12-26T00:07:11;7.80;;;4.90;;
8490;SDS011;4282;49.986;7.938;2022-12-26T00:09:42;6.10;;;5.23;;
8490;SDS011;4282;49.986;7.938;2022-12-26T00:12:10;8.47;;;5.77;;
8490;SDS011;4282;49.986;7.938;2022-12-26T00:14:39;6.47;;;5.13;;
8490;SDS011;4282;49.986;7.938;2022-12-26T00:17:07;8.03;;;5.50;;
8490;SDS011;4282;49.986;7.938;2022-12-26T00:19:36;6.67;;;5.27;;
8490;SDS011;4282;49.986;7.938;2022-12-26T00:22:04;6.90;;;5.07;;
8490;SDS011;4282;49.986;7.938;2022-12-26T00:24:32;5.93;;;5.23;;
8490;SDS011;4282;49.986;7.938;2022-12-26T00:27:03;7.57;;;5.97;;
8490;SDS011;4282;49.986;7.938;2022-12-26T00:29:31;8.53;;;5.50;;
8490;SDS011;4282;49.986;7.938;2022-12-26T00:31:59;7.80;;;6.40;;
8490;SDS011;4282;49.986;7.938;2022-12-26T00:34:28;9.43;;;6.17;;
8490;SDS011;4282;49.986;7.938;2022-12-26T00:36:56;9.07;;;6.13;;
8490;SDS011;4282;49.986;7.938;2022-12-26T00:39:24;6.73;;;5.27;;
8490;SDS011;4282;49.986;7.938;2022-12-26T00:41:52;6.13;;;4.83;;
8490;SDS011;4282;49.986;7.938;2022-12-26T00:44:23;5.47;;;4.97;;
8490;SDS011;4282;49.986;7.938;2022-12-26T00:46:51;6.97;;;5.10;;
8490;SDS011;4282;49.986;7.938;2022-12-26T00:49:20;6.57;;;4.70;;
8490;SDS011;4282;49.986;7.938;2022-12-26T00:51:48;7.53;;;5.13;;
8490;SDS011;4282;49.986;7.938;2022-12-26T00:54:16;6.97;;;4.90;;
8490;SDS011;4282;49.986;7.938;2022-12-26T00:56:44;6.80;;;5.23;;
8490;SDS011;4282;49.986;7.938;2022-12-26T00:59:13;6.23;;;4.93;;
8490;SDS011;4282;49.986;7.938;2022-12-26T01:01:43;7.47;;;4.97;;
8490;SDS011;4282;49.986;7.938;2022-12-26T01:04:12;9.13;;;5.30;;
8490;SDS011;4282;49.986;7.938;2022-12-26T01:06:40;9.10;;;5.47;;
8490;SDS011;4282;49.986;7.938;2022-12-26T01:09:08;8.83;;;5.80;;
8490;SDS011;4282;49.986;7.938;2022-12-26T01:11:37;7.67;;;4.77;;
8490;SDS011;4282;49.986;7.938;2022-12-26T01:14:09;7.83;;;4.67;;
8490;SDS011;4282;49.986;7.938;2022-12-26T01:16:38;6.33;;;4.90;;
8490;SDS011;4282;49.986;7.938;2022-12-26T01:19:09;7.37;;;4.87;;
8490;SDS011;4282;49.986;7.938;2022-12-26T01:21:38;7.13;;;4.67;;
8490;SDS011;4282;49.986;7.938;2022-12-26T01:24:07;6.67;;;4.80;;
8490;SDS011;4282;49.986;7.938;2022-12-26T01:26:35;7.60;;;5.30;;
8490;SDS011;4282;49.986;7.938;2022-12-26T01:29:03;12.50;;;6.30;;
8490;SDS011;4282;49.986;7.938;2022-12-26T01:31:32;9.40;;;6.23;;
8490;SDS011;4282;49.986;7.938;2022-12-26T01:34:00;8.93;;;6.03;;
8490;SDS011;4282;49.986;7.938;2022-12-26T01:36:31;9.73;;;6.07;;
8490;SDS011;4282;49.986;7.938;2022-12-26T01:38:59;10.73;;;8.13;;
8490;SDS011;4282;49.986;7.938;2022-12-26T01:41:27;9.23;;;6.80;;
8490;SDS011;4282;49.986;7.938;2022-12-26T01:43:58;8.93;;;5.87;;
8490;SDS011;4282;49.986;7.938;2022-12-26T01:46:28;6.50;;;4.97;;
8490;SDS011;4282;49.986;7.938;2022-12-26T01:48:59;7.73;;;5.63;;
8490;SDS011;4282;49.986;7.938;2022-12-26T01:51:32;8.23;;;5.30;;
8490;SDS011;4282;49.986;7.938;2022-12-26T01:54:03;7.57;;;5.10;;
8490;SDS011;4282;49.986;7.938;2022-12-26T01:56:33;7.73;;;4.90;;
8490;SDS011;4282;49.986;7.938;2022-12-26T01:59:05;6.67;;;4.70;;
8490;SDS011;4282;49.986;7.938;2022-12-26T02:01:35;8.70;;;5.47;;
8490;SDS011;4282;49.986;7.938;2022-12-26T02:04:06;8.07;;;5.33;;
8490;SDS011;4282;49.986;7.938;2022-12-26T02:06:52;7.30;;;6.10;;
8490;SDS011;4282;49.986;7.938;2022-12-26T02:09:20;9.10;;;5.67;;
8490;SDS011;4282;49.986;7.938;2022-12-26T02:11:49;8.27;;;5.73;;
8490;SDS011;4282;49.986;7.938;2022-12-26T02:14:20;9.17;;;6.40;;
8490;SDS011;4282;49.986;7.938;2022-12-26T02:16:48;7.40;;;6.37;;
8490;SDS011;4282;49.986;7.938;2022-12-26T02:19:19;10.90;;;6.20;;
8490;SDS011;4282;49.986;7.938;2022-12-26T02:22:01;10.40;;;5.77;;
8490;SDS011;4282;49.986;7.938;2022-12-26T02:25:05;7.33;;;5.43;;
8490;SDS011;4282;49.986;7.938;2022-12-26T02:27:52;7.33;;;5.20;;
8490;SDS011;4282;49.986;7.938;2022-12-26T02:30:35;7.07;;;5.03;;
8490;SDS011;4282;49.986;7.938;2022-12-26T02:33:09;8.77;;;5.00;;
8490;SDS011;4282;49.986;7.938;2022-12-26T02:35:56;7.27;;;5.30;;
8490;SDS011;4282;49.986;7.938;2022-12-26T02:38:34;9.00;;;5.93;;
8490;SDS011;4282;49.986;7.938;2022-12-26T02:41:09;8.87;;;5.10;;
8490;SDS011;4282;49.986;7.938;2022-12-26T02:43:45;7.00;;;4.97;;
8490;SDS011;4282;49.986;7.938;2022-12-26T02:46:20;5.97;;;4.43;;
8490;SDS011;4282;49.986;7.938;2022-12-26T02:49:14;6.27;;;4.67;;
8490;SDS011;4282;49.986;7.938;2022-12-26T02:51:48;6.13;;;4.20;;
8490;SDS011;4282;49.986;7.938;2022-12-26T02:54:36;6.43;;;4.60;;
8490;SDS011;4282;49.986;7.938;2022-12-26T02:57:19;6.60;;;4.70;;
8490;SDS011;4282;49.986;7.938;2022-12-26T03:00:02;6.67;;;4.70;;
8490;SDS011;4282;49.986;7.938;2022-12-26T03:02:49;6.83;;;4.90;;
8490;SDS011;4282;49.986;7.938;2022-12-26T03:05:32;8.73;;;5.53;;
8490;SDS011;4282;49.986;7.938;2022-12-26T03:08:17;6.73;;;5.23;;
8490;SDS011;4282;49.986;7.938;2022-12-26T03:11:01;7.23;;;4.90;;
8490;SDS011;4282;49.986;7.938;2022-12-26T03:13:41;7.23;;;4.83;;
8490;SDS011;4282;49.986;7.938;2022-12-26T03:16:10;9.00;;;5.37;;
8490;SDS011;4282;49.986;7.938;2022-12-26T03:18:55;8.10;;;5.13;;
8490;SDS011;4282;49.986;7.938;2022-12-26T03:21:27;8.47;;;4.63;;
8490;SDS011;4282;49.986;7.938;2022-12-26T03:23:57;6.83;;;4.47;;
8490;SDS011;4282;49.986;7.938;2022-12-26T03:26:25;6.63;;;4.70;;
8490;SDS011;4282;49.986;7.938;2022-12-26T03:29:04;5.33;;;4.20;;
8490;SDS011;4282;49.986;7.938;2022-12-26T03:31:45;5.20;;;4.27;;
8490;SDS011;4282;49.986;7.938;2022-12-26T03:34:16;5.03;;;3.97;;
8490;SDS011;4282;49.986;7.938;2022-12-26T03:36:42;6.97;;;4.30;;
8490;SDS011;4282;49.986;7.938;2022-12-26T03:39:20;7.57;;;4.10;;
8490;SDS011;4282;49.986;7.938;2022-12-26T03:42:19;7.40;;;4.67;;
8490;SDS011;4282;49.986;7.938;2022-12-26T03:45:04;8.37;;;4.60;;
8490;SDS011;4282;49.986;7.938;2022-12-26T03:47:50;7.67;;;4.40;;
8490;SDS011;4282;49.986;7.938;2022-12-26T03:50:37;5.20;;;3.97;;
8490;SDS011;4282;49.986;7.938;2022-12-26T03:53:21;6.30;;;3.87;;
8490;SDS011;4282;49.986;7.938;2022-12-26T03:56:04;4.33;;;3.60;;
8490;SDS011;4282;49.986;7.938;2022-12-26T03:58:48;4.33;;;3.70;;
8490;SDS011;4282;49.986;7.938;2022-12-26T04:01:32;4.53;;;3.40;;
8490;SDS011;4282;49.986;7.938;2022-12-26T04:04:15;5.70;;;3.17;;
8490;SDS011;4282;49.986;7.938;2022-12-26T04:07:00;5.00;;;3.30;;
8490;SDS011;4282;49.986;7.938;2022-12-26T04:09:45;5.10;;;3.90;;
8490;SDS011;4282;49.986;7.938;2022-12-26T04:12:28;5.60;;;3.63;;
8490;SDS011;4282;49.986;7.938;2022-12-26T04:15:14;4.83;;;3.77;;
8490;SDS011;4282;49.986;7.938;2022-12-26T04:18:02;6.53;;;3.90;;
8490;SDS011;4282;49.986;7.938;2022-12-26T04:20:48;4.93;;;3.53;;
8490;SDS011;4282;49.986;7.938;2022-12-26T04:23:30;6.50;;;4.03;;
8490;SDS011;4282;49.986;7.938;2022-12-26T04:26:16;4.63;;;3.87;;
8490;SDS011;4282;49.986;7.938;2022-12-26T04:28:59;6.77;;;3.77;;
8490;SDS011;4282;49.986;7.938;2022-12-26T04:31:41;5.37;;;3.50;;
8490;SDS011;4282;49.986;7.938;2022-12-26T04:34:26;4.90;;;3.53;;
8490;SDS011;4282;49.986;7.938;2022-12-26T04:37:12;5.93;;;4.03;;
8490;SDS011;4282;49.986;7.938;2022-12-26T04:39:59;5.80;;;3.80;;
8490;SDS011;4282;49.986;7.938;2022-12-26T04:42:41;4.33;;;3.30;;
8490;SDS011;4282;49.986;7.938;2022-12-26T04:45:22;4.50;;;3.20;;
8490;SDS011;4282;49.986;7.938;2022-12-26T04:47:51;6.30;;;3.53;;
8490;SDS011;4282;49.986;7.938;2022-12-26T04:50:34;6.97;;;3.60;;
8490;SDS011;4282;49.986;7.938;2022-12-26T04:53:03;4.93;;;3.50;;
8490;SDS011;4282;49.986;7.938;2022-12-26T04:55:34;6.33;;;3.80;;
8490;SDS011;4282;49.986;7.938;2022-12-26T04:58:02;8.47;;;4.10;;
8490;SDS011;4282;49.986;7.938;2022-12-26T05:00:31;5.90;;;3.10;;
8490;SDS011;4282;49.986;7.938;2022-12-26T05:02:59;6.80;;;3.00;;
8490;SDS011;4282;49.986;7.938;2022-12-26T05:05:40;6.23;;;3.40;;
8490;SDS011;4282;49.986;7.938;2022-12-26T05:08:35;6.10;;;3.63;;
8490;SDS011;4282;49.986;7.938;2022-12-26T05:11:19;6.47;;;4.00;;
8490;SDS011;4282;49.986;7.938;2022-12-26T05:13:47;4.23;;;3.47;;
8490;SDS011;4282;49.986;7.938;2022-12-26T05:16:16;4.73;;;3.87;;
8490;SDS011;4282;49.986;7.938;2022-12-26T05:18:57;7.47;;;4.23;;
8490;SDS011;4282;49.986;7.938;2022-12-26T05:21:37;7.27;;;4.43;;
8490;SDS011;4282;49.986;7.938;2022-12-26T05:24:18;5.57;;;4.20;;
8490;SDS011;4282;49.986;7.938;2022-12-26T05:27:01;5.77;;;4.03;;
8490;SDS011;4282;49.986;7.938;2022-12-26T05:29:42;5.63;;;3.53;;
8490;SDS011;4282;49.986;7.938;2022-12-26T05:32:11;4.83;;;3.83;;
8490;SDS011;4282;49.986;7.938;2022-12-26T05:34:51;5.53;;;3.37;;
8490;SDS011;4282;49.986;7.938;2022-12-26T05:37:19;5.67;;;4.23;;
8490;SDS011;4282;49.986;7.938;2022-12-26T05:39:47;6.77;;;3.67;;
8490;SDS011;4282;49.986;7.938;2022-12-26T05:42:18;5.17;;;4.00;;
8490;SDS011;4282;49.986;7.938;2022-12-26T05:44:46;5.10;;;3.97;;
8490;SDS011;4282;49.986;7.938;2022-12-26T05:47:14;6.83;;;3.77;;
8490;SDS011;4282;49.986;7.938;2022-12-26T05:49:43;6.13;;;4.07;;
8490;SDS011;4282;49.986;7.938;2022-12-26T05:52:11;4.33;;;3.57;;
8490;SDS011;4282;49.986;7.938;2022-12-26T05:54:39;6.00;;;3.53;;
8490;SDS011;4282;49.986;7.938;2022-12-26T05:57:07;5.20;;;3.43;;
8490;SDS011;4282;49.986;7.938;2022-12-26T05:59:38;6.97;;;3.90;;
8490;SDS011;4282;49.986;7.938;2022-12-26T06:02:06;6.07;;;3.60;;
8490;SDS011;4282;49.986;7.938;2022-12-26T06:04:35;4.33;;;3.40;;
8490;SDS011;4282;49.986;7.938;2022-12-26T06:07:03;5.73;;;3.23;;
8490;SDS011;4282;49.986;7.938;2022-12-26T06:09:31;7.17;;;3.73;;
8490;SDS011;4282;49.986;7.938;2022-12-26T06:11:59;6.10;;;3.93;;
8490;SDS011;4282;49.986;7.938;2022-12-26T06:14:28;4.50;;;3.10;;
8490;SDS011;4282;49.986;7.938;2022-12-26T06:16:58;5.57;;;3.30;;
8490;SDS011;4282;49.986;7.938;2022-12-26T06:19:27;5.90;;;3.20;;
8490;SDS011;4282;49.986;7.938;2022-12-26T06:21:55;5.03;;;3.10;;
8490;SDS011;4282;49.986;7.938;2022-12-26T06:24:23;7.70;;;3.67;;
8490;SDS011;4282;49.986;7.938;2022-12-26T06:26:52;5.33;;;3.33;;
8490;SDS011;4282;49.986;7.938;2022-12-26T06:29:20;4.33;;;3.60;;
8490;SDS011;4282;49.986;7.938;2022-12-26T06:31:48;5.47;;;2.83;;
8490;SDS011;4282;49.986;7.938;2022-12-26T06:34:19;4.23;;;2.73;;
8490;SDS011;4282;49.986;7.938;2022-12-26T06:36:47;4.77;;;3.10;;
8490;SDS011;4282;49.986;7.938;2022-12-26T06:39:15;5.20;;;3.13;;
8490;SDS011;4282;49.986;7.938;2022-12-26T06:41:44;4.87;;;3.00;;
8490;SDS011;4282;49.986;7.938;2022-12-26T06:44:12;5.90;;;3.27;;
8490;SDS011;4282;49.986;7.938;2022-12-26T06:46:40;5.17;;;3.03;;
8490;SDS011;4282;49.986;7.938;2022-12-26T06:49:08;5.63;;;3.30;;
8490;SDS011;4282;49.986;7.938;2022-12-26T06:51:39;5.10;;;3.13;;
8490;SDS011;4282;49.986;7.938;2022-12-26T06:54:09;5.70;;;3.13;;
8490;SDS011;4282;49.986;7.938;2022-12-26T06:56:37;5.23;;;3.10;;
8490;SDS011;4282;49.986;7.938;2022-12-26T06:59:05;5.73;;;3.13;;
8490;SDS011;4282;49.986;7.938;2022-12-26T07:01:34;6.90;;;3.30;;
8490;SDS011;4282;49.986;7.938;2022-12-26T07:04:02;5.70;;;3.20;;
8490;SDS011;4282;49.986;7.938;2022-12-26T07:06:31;6.77;;;3.80;;
8490;SDS011;4282;49.986;7.938;2022-12-26T07:09:03;6.60;;;3.50;;
8490;SDS011;4282;49.986;7.938;2022-12-26T07:11:34;5.70;;;3.67;;
8490;SDS011;4282;49.986;7.938;2022-12-26T07:14:03;7.97;;;3.97;;
8490;SDS011;4282;49.986;7.938;2022-12-26T07:16:32;8.50;;;3.80;;
8490;SDS011;4282;49.986;7.938;2022-12-26T07:19:01;5.73;;;3.60;;
8490;SDS011;4282;49.986;7.938;2022-12-26T07:21:30;12.57;;;4.63;;
8490;SDS011;4282;49.986;7.938;2022-12-26T07:23:58;5.00;;;4.50;;
8490;SDS011;4282;49.986;7.938;2022-12-26T07:26:29;10.20;;;4.87;;
8490;SDS011;4282;49.986;7.938;2022-12-26T07:28:58;8.73;;;5.07;;
8490;SDS011;4282;49.986;7.938;2022-12-26T07:31:26;9.27;;;5.27;;
8490;SDS011;4282;49.986;7.938;2022-12-26T07:33:55;8.87;;;4.93;;
8490;SDS011;4282;49.986;7.938;2022-12-26T07:36:23;7.60;;;4.67;;
8490;SDS011;4282;49.986;7.938;2022-12-26T07:38:52;6.40;;;4.23;;
8490;SDS011;4282;49.986;7.938;2022-12-26T07:41:20;8.20;;;4.50;;
8490;SDS011;4282;49.986;7.938;2022-12-26T07:44:03;5.50;;;4.17;;
8490;SDS011;4282;49.986;7.938;2022-12-26T07:46:32;6.83;;;4.40;;
8490;SDS011;4282;49.986;7.938;2022-12-26T07:49:01;7.53;;;4.37;;
8490;SDS011;4282;49.986;7.938;2022-12-26T07:51:29;6.63;;;4.30;;
8490;SDS011;4282;49.986;7.938;2022-12-26T07:53:58;6.73;;;4.17;;
8490;SDS011;4282;49.986;7.938;2022-12-26T07:56:26;4.90;;;3.27;;
8490;SDS011;4282;49.986;7.938;2022-12-26T07:58:54;6.10;;;3.50;;
8490;SDS011;4282;49.986;7.938;2022-12-26T08:01:25;4.63;;;3.10;;
8490;SDS011;4282;49.986;7.938;2022-12-26T08:03:53;6.60;;;3.53;;
8490;SDS011;4282;49.986;7.938;2022-12-26T08:06:21;6.00;;;3.00;;
8490;SDS011;4282;49.986;7.938;2022-12-26T08:08:50;6.97;;;3.23;;
8490;SDS011;4282;49.986;7.938;2022-12-26T08:11:20;7.40;;;4.00;;
8490;SDS011;4282;49.986;7.938;2022-12-26T08:13:49;7.13;;;5.40;;
8490;SDS011;4282;49.986;7.938;2022-12-26T08:16:18;7.00;;;3.73;;
8490;SDS011;4282;49.986;7.938;2022-12-26T08:18:49;9.83;;;4.37;;
8490;SDS011;4282;49.986;7.938;2022-12-26T08:21:17;5.80;;;3.53;;
8490;SDS011;4282;49.986;7.938;2022-12-26T08:23:45;5.40;;;3.37;;
8490;SDS011;4282;49.986;7.938;2022-12-26T08:26:14;4.60;;;2.70;;
8490;SDS011;4282;49.986;7.938;2022-12-26T08:28:46;5.80;;;2.40;;
8490;SDS011;4282;49.986;7.938;2022-12-26T08:31:15;3.23;;;2.30;;
8490;SDS011;4282;49.986;7.938;2022-12-26T08:33:43;4.50;;;2.27;;
8490;SDS011;4282;49.986;7.938;2022-12-26T08:36:14;4.27;;;2.60;;
8490;SDS011;4282;49.986;7.938;2022-12-26T08:38:43;3.17;;;2.10;;
8490;SDS011;4282;49.986;7.938;2022-12-26T08:41:12;2.97;;;2.20;;
8490;SDS011;4282;49.986;7.938;2022-12-26T08:43:41;4.20;;;2.73;;
8490;SDS011;4282;49.986;7.938;2022-12-26T08:46:10;4.27;;;3.10;;
8490;SDS011;4282;49.986;7.938;2022-12-26T08:48:39;6.00;;;4.70;;
8490;SDS011;4282;49.986;7.938;2022-12-26T08:51:08;4.10;;;3.23;;
8490;SDS011;4282;49.986;7.938;2022-12-26T08:53:41;8.40;;;5.50;;
8490;SDS011;4282;49.986;7.938;2022-12-26T08:56:11;6.30;;;4.60;;
8490;SDS011;4282;49.986;7.938;2022-12-26T08:58:40;6.10;;;4.50;;
8490;SDS011;4282;49.986;7.938;2022-12-26T09:01:10;5.20;;;3.13;;
8490;SDS011;4282;49.986;7.938;2022-12-26T09:03:39;4.27;;;2.47;;
8490;SDS011;4282;49.986;7.938;2022-12-26T09:06:08;6.40;;;3.00;;
8490;SDS011;4282;49.986;7.938;2022-12-26T09:08:37;3.20;;;2.77;;
8490;SDS011;4282;49.986;7.938;2022-12-26T09:11:09;4.67;;;3.20;;
8490;SDS011;4282;49.986;7.938;2022-12-26T09:13:39;5.00;;;3.63;;
8490;SDS011;4282;49.986;7.938;2022-12-26T09:16:09;6.67;;;4.03;;
8490;SDS011;4282;49.986;7.938;2022-12-26T09:18:38;6.37;;;4.37;;
8490;SDS011;4282;49.986;7.938;2022-12-26T09:21:08;6.80;;;4.23;;
8490;SDS011;4282;49.986;7.938;2022-12-26T09:23:37;5.30;;;3.60;;
8490;SDS011;4282;49.986;7.938;2022-12-26T09:26:12;5.73;;;3.43;;
8490;SDS011;4282;49.986;7.938;2022-12-26T09:28:41;4.93;;;3.40;;
8490;SDS011;4282;49.986;7.938;2022-12-26T09:31:11;6.63;;;3.87;;
8490;SDS011;4282;49.986;7.938;2022-12-26T09:33:40;5.93;;;4.07;;
8490;SDS011;4282;49.986;7.938;2022-12-26T09:36:09;8.97;;;4.10;;
8490;SDS011;4282;49.986;7.938;2022-12-26T09:38:40;6.50;;;4.00;;
8490;SDS011;4282;49.986;7.938;2022-12-26T09:41:26;5.67;;;3.70;;
8490;SDS011;4282;49.986;7.938;2022-12-26T09:44:04;7.10;;;3.97;;
8490;SDS011;4282;49.986;7.938;2022-12-26T09:46:35;6.83;;;4.27;;
8490;SDS011;4282;49.986;7.938;2022-12-26T09:49:08;5.50;;;4.20;;
8490;SDS011;4282;49.986;7.938;2022-12-26T09:51:37;6.60;;;4.10;;
8490;SDS011;4282;49.986;7.938;2022-12-26T09:54:09;7.80;;;3.97;;
8490;SDS011;4282;49.986;7.938;2022-12-26T09:56:44;9.30;;;4.83;;
8490;SDS011;4282;49.986;7.938;2022-12-26T09:59:14;13.30;;;8.50;;
8490;SDS011;4282;49.986;7.938;2022-12-26T10:01:44;4.27;;;2.13;;
8490;SDS011;4282;49.986;7.938;2022-12-26T10:04:15;3.70;;;2.47;;
8490;SDS011;4282;49.986;7.938;2022-12-26T10:06:47;4.67;;;2.70;;
8490;SDS011;4282;49.986;7.938;2022-12-26T10:09:35;8.93;;;5.07;;
8490;SDS011;4282;49.986;7.938;2022-12-26T10:12:17;5.10;;;2.97;;
8490;SDS011;4282;49.986;7.938;2022-12-26T10:14:55;3.43;;;2.30;;
8490;SDS011;4282;49.986;7.938;2022-12-26T10:17:27;3.93;;;2.30;;
8490;SDS011;4282;49.986;7.938;2022-12-26T10:20:03;2.60;;;2.30;;
8490;SDS011;4282;49.986;7.938;2022-12-26T10:22:46;4.50;;;2.50;;
8490;SDS011;4282;49.986;7.938;2022-12-26T10:25:23;23.00;;;11.77;;
8490;SDS011;4282;49.986;7.938;2022-12-26T10:27:58;27.30;;;9.27;;
8490;SDS011;4282;49.986;7.938;2022-12-26T10:30:29;10.93;;;4.97;;
8490;SDS011;4282;49.986;7.938;2022-12-26T10:33:01;10.23;;;4.07;;
8490;SDS011;4282;49.986;7.938;2022-12-26T10:35:36;2.77;;;1.90;;
8490;SDS011;4282;49.986;7.938;2022-12-26T10:38:09;4.33;;;2.10;;
8490;SDS011;4282;49.986;7.938;2022-12-26T10:40:41;3.13;;;1.70;;
8490;SDS011;4282;49.986;7.938;2022-12-26T10:43:19;4.33;;;1.60;;
8490;SDS011;4282;49.986;7.938;2022-12-26T10:45:56;1.60;;;1.50;;
8490;SDS011;4282;49.986;7.938;2022-12-26T10:48:47;2.97;;;1.50;;
8490;SDS011;4282;49.986;7.938;2022-12-26T10:51:16;2.00;;;1.47;;
8490;SDS011;4282;49.986;7.938;2022-12-26T10:53:45;4.23;;;1.50;;
8490;SDS011;4282;49.986;7.938;2022-12-26T10:56:15;2.53;;;1.60;;
8490;SDS011;4282;49.986;7.938;2022-12-26T10:58:47;2.53;;;1.77;;
8490;SDS011;4282;49.986;7.938;2022-12-26T11:01:28;1.70;;;1.40;;
8490;SDS011;4282;49.986;7.938;2022-12-26T11:03:59;2.57;;;1.27;;
8490;SDS011;4282;49.986;7.938;2022-12-26T11:06:30;2.03;;;1.20;;
8490;SDS011;4282;49.986;7.938;2022-12-26T11:08:59;2.13;;;1.60;;
8490;SDS011;4282;49.986;7.938;2022-12-26T11:11:28;2.30;;;1.20;;
8490;SDS011;4282;49.986;7.938;2022-12-26T11:14:24;2.10;;;1.40;;
8490;SDS011;4282;49.986;7.938;2022-12-26T11:16:54;2.00;;;1.40;;
8490;SDS011;4282;49.986;7.938;2022-12-26T11:19:27;5.07;;;2.40;;
8490;SDS011;4282;49.986;7.938;2022-12-26T11:24:41;2.00;;;1.37;;
8490;SDS011;4282;49.986;7.938;2022-12-26T11:27:16;2.00;;;1.20;;
8490;SDS011;4282;49.986;7.938;2022-12-26T11:29:48;3.27;;;1.73;;
8490;SDS011;4282;49.986;7.938;2022-12-26T11:32:17;3.17;;;1.40;;
8490;SDS011;4282;49.986;7.938;2022-12-26T11:34:47;2.63;;;1.67;;
8490;SDS011;4282;49.986;7.938;2022-12-26T11:37:20;2.20;;;1.43;;
8490;SDS011;4282;49.986;7.938;2022-12-26T11:39:52;1.30;;;1.20;;
8490;SDS011;4282;49.986;7.938;2022-12-26T11:42:21;1.50;;;1.00;;
8490;SDS011;4282;49.986;7.938;2022-12-26T11:44:53;3.97;;;1.60;;
8490;SDS011;4282;49.986;7.938;2022-12-26T11:47:24;2.93;;;1.70;;
8490;SDS011;4282;49.986;7.938;2022-12-26T11:49:57;3.60;;;3.30;;
8490;SDS011;4282;49.986;7.938;2022-12-26T11:52:33;2.07;;;1.40;;
8490;SDS011;4282;49.986;7.938;2022-12-26T11:57:56;3.50;;;1.90;;
8490;SDS011;4282;49.986;7.938;2022-12-26T12:00:33;2.23;;;1.10;;
8490;SDS011;4282;49.986;7.938;2022-12-26T12:03:03;4.53;;;2.53;;
8490;SDS011;4282;49.986;7.938;2022-12-26T12:05:40;3.67;;;2.10;;
8490;SDS011;4282;49.986;7.938;2022-12-26T12:16:46;2.20;;;1.70;;
8490;SDS011;4282;49.986;7.938;2022-12-26T12:19:24;3.20;;;1.67;;
8490;SDS011;4282;49.986;7.938;2022-12-26T12:22:01;3.43;;;1.63;;
8490;SDS011;4282;49.986;7.938;2022-12-26T12:24:39;3.17;;;1.43;;
8490;SDS011;4282;49.986;7.938;2022-12-26T12:27:15;2.87;;;1.00;;
8490;SDS011;4282;49.986;7.938;2022-12-26T12:29:52;1.87;;;1.10;;
8490;SDS011;4282;49.986;7.938;2022-12-26T12:32:34;3.27;;;1.30;;
8490;SDS011;4282;49.986;7.938;2022-12-26T12:35:15;1.97;;;1.30;;
8490;SDS011;4282;49.986;7.938;2022-12-26T12:37:56;2.50;;;1.10;;
8490;SDS011;4282;49.986;7.938;2022-12-26T12:40:36;1.80;;;0.83;;
8490;SDS011;4282;49.986;7.938;2022-12-26T12:43:11;1.40;;;0.80;;
8490;SDS011;4282;49.986;7.938;2022-12-26T12:45:44;3.57;;;0.97;;
8490;SDS011;4282;49.986;7.938;2022-12-26T12:48:24;2.00;;;1.00;;
8490;SDS011;4282;49.986;7.938;2022-12-26T12:50:58;4.30;;;1.50;;
8490;SDS011;4282;49.986;7.938;2022-12-26T12:53:34;2.20;;;0.90;;
8490;SDS011;4282;49.986;7.938;2022-12-26T12:56:15;0.90;;;0.70;;
8490;SDS011;4282;49.986;7.938;2022-12-26T12:58:51;3.03;;;1.23;;
8490;SDS011;4282;49.986;7.938;2022-12-26T13:01:24;2.83;;;1.10;;
8490;SDS011;4282;49.986;7.938;2022-12-26T13:03:57;1.23;;;0.80;;
8490;SDS011;4282;49.986;7.938;2022-12-26T13:06:32;1.63;;;1.17;;
8490;SDS011;4282;49.986;7.938;2022-12-26T13:09:03;1.77;;;1.00;;
8490;SDS011;4282;49.986;7.938;2022-12-26T13:11:35;1.63;;;1.40;;
8490;SDS011;4282;49.986;7.938;2022-12-26T13:14:05;1.63;;;1.10;;
8490;SDS011;4282;49.986;7.938;2022-12-26T13:16:39;3.57;;;1.60;;
8490;SDS011;4282;49.986;7.938;2022-12-26T13:19:14;2.60;;;1.83;;
8490;SDS011;4282;49.986;7.938;2022-12-26T13:21:44;7.33;;;1.63;;
8490;SDS011;4282;49.986;7.938;2022-12-26T13:24:15;4.13;;;1.30;;
8490;SDS011;4282;49.986;7.938;2022-12-26T13:26:50;2.20;;;1.17;;
8490;SDS011;4282;49.986;7.938;2022-12-26T13:29:26;2.00;;;1.60;;
8490;SDS011;4282;49.986;7.938;2022-12-26T13:32:00;3.17;;;1.87;;
8490;SDS011;4282;49.986;7.938;2022-12-26T13:34:33;4.60;;;1.90;;
8490;SDS011;4282;49.986;7.938;2022-12-26T13:37:01;3.10;;;1.30;;
8490;SDS011;4282;49.986;7.938;2022-12-26T13:39:36;2.43;;;1.37;;
8490;SDS011;4282;49.986;7.938;2022-12-26T13:42:21;3.07;;;1.00;;
8490;SDS011;4282;49.986;7.938;2022-12-26T13:51:07;1.27;;;1.10;;
8490;SDS011;4282;49.986;7.938;2022-12-26T13:54:10;1.50;;;1.00;;
8490;SDS011;4282;49.986;7.938;2022-12-26T13:56:56;1.90;;;1.10;;
8490;SDS011;4282;49.986;7.938;2022-12-26T13:59:43;2.73;;;0.80;;
8490;SDS011;4282;49.986;7.938;2022-12-26T14:05:26;0.70;;;0.50;;
8490;SDS011;4282;49.986;7.938;2022-12-26T14:08:02;1.40;;;1.00;;
8490;SDS011;4282;49.986;7.938;2022-12-26T14:10:37;8.37;;;5.20;;
8490;SDS011;4282;49.986;7.938;2022-12-26T14:13:12;2.20;;;0.73;;
8490;SDS011;4282;49.986;7.938;2022-12-26T14:16:04;2.50;;;1.23;;
8490;SDS011;4282;49.986;7.938;2022-12-26T14:18:41;1.97;;;1.00;;
8490;SDS011;4282;49.986;7.938;2022-12-26T14:21:29;1.30;;;1.10;;
8490;SDS011;4282;49.986;7.938;2022-12-26T14:24:09;1.90;;;0.73;;
8490;SDS011;4282;49.986;7.938;2022-12-26T14:26:47;2.03;;;1.40;;
8490;SDS011;4282;49.986;7.938;2022-12-26T14:29:20;3.50;;;1.50;;
8490;SDS011;4282;49.986;7.938;2022-12-26T14:31:54;3.03;;;1.50;;
8490;SDS011;4282;49.986;7.938;2022-12-26T14:34:32;2.40;;;1.17;;
8490;SDS011;4282;49.986;7.938;2022-12-26T14:37:12;1.90;;;1.40;;
8490;SDS011;4282;49.986;7.938;2022-12-26T14:39:51;2.23;;;1.70;;
8490;SDS011;4282;49.986;7.938;2022-12-26T14:42:27;3.30;;;2.23;;
8490;SDS011;4282;49.986;7.938;2022-12-26T14:45:11;1.03;;;0.90;;
8490;SDS011;4282;49.986;7.938;2022-12-26T14:47:55;4.00;;;2.50;;
8490;SDS011;4282;49.986;7.938;2022-12-26T14:50:34;2.47;;;1.63;;
8490;SDS011;4282;49.986;7.938;2022-12-26T14:53:21;2.77;;;2.00;;
8490;SDS011;4282;49.986;7.938;2022-12-26T14:55:58;2.40;;;1.80;;
8490;SDS011;4282;49.986;7.938;2022-12-26T14:58:31;1.83;;;1.40;;
8490;SDS011;4282;49.986;7.938;2022-12-26T15:04:05;3.07;;;0.97;;
8490;SDS011;4282;49.986;7.938;2022-12-26T15:12:42;1.20;;;1.10;;
8490;SDS011;4282;49.986;7.938;2022-12-26T15:15:30;3.70;;;1.70;;
8490;SDS011;4282;49.986;7.938;2022-12-26T15:18:07;1.67;;;0.97;;
8490;SDS011;4282;49.986;7.938;2022-12-26T15:20:58;2.00;;;1.80;;
8490;SDS011;4282;49.986;7.938;2022-12-26T15:23:50;2.20;;;0.40;;
8490;SDS011;4282;49.986;7.938;2022-12-26T15:26:34;0.47;;;0.40;;
8490;SDS011;4282;49.986;7.938;2022-12-26T15:29:41;2.10;;;1.03;;
8490;SDS011;4282;49.986;7.938;2022-12-26T15:32:18;1.57;;;1.30;;
8490;SDS011;4282;49.986;7.938;2022-12-26T15:34:49;1.53;;;0.60;;
8490;SDS011;4282;49.986;7.938;2022-12-26T15:40:18;1.53;;;0.93;;
8490;SDS011;4282;49.986;7.938;2022-12-26T15:42:54;0.87;;;0.70;;
8490;SDS011;4282;49.986;7.938;2022-12-26T15:45:42;2.13;;;1.60;;
8490;SDS011;4282;49.986;7.938;2022-12-26T15:48:16;1.97;;;0.80;;
8490;SDS011;4282;49.986;7.938;2022-12-26T15:50:55;1.07;;;0.73;;
8490;SDS011;4282;49.986;7.938;2022-12-26T15:53:30;1.40;;;0.77;;
8490;SDS011;4282;49.986;7.938;2022-12-26T15:56:09;2.47;;;0.70;;
8490;SDS011;4282;49.986;7.938;2022-12-26T15:58:51;1.17;;;0.77;;
8490;SDS011;4282;49.986;7.938;2022-12-26T16:01:38;0.67;;;0.67;;
8490;SDS011;4282;49.986;7.938;2022-12-26T16:04:11;2.80;;;1.10;;
8490;SDS011;4282;49.986;7.938;2022-12-26T16:06:48;2.33;;;1.50;;
8490;SDS011;4282;49.986;7.938;2022-12-26T16:09:26;2.83;;;1.60;;
8490;SDS011;4282;49.986;7.938;2022-12-26T16:12:01;2.20;;;1.57;;
8490;SDS011;4282;49.986;7.938;2022-12-26T16:14:31;2.67;;;2.40;;
8490;SDS011;4282;49.986;7.938;2022-12-26T16:17:18;1.93;;;1.50;;
8490;SDS011;4282;49.986;7.938;2022-12-26T16:19:49;4.20;;;2.50;;
8490;SDS011;4282;49.986;7.938;2022-12-26T16:22:23;0.97;;;0.80;;
8490;SDS011;4282;49.986;7.938;2022-12-26T16:25:07;2.80;;;1.03;;
8490;SDS011;4282;49.986;7.938;2022-12-26T16:27:35;2.83;;;0.53;;
8490;SDS011;4282;49.986;7.938;2022-12-26T16:30:05;1.90;;;1.37;;
8490;SDS011;4282;49.986;7.938;2022-12-26T16:32:42;2.27;;;1.63;;
8490;SDS011;4282;49.986;7.938;2022-12-26T16:35:18;1.20;;;0.97;;